<?xml version="1.0" encoding="UTF-8" standalone="no" ?>
<gpx xmlns="http://www.topografix.com/GPX/1/1" xmlns:xsi="http://www.w3.org/2001/XMLSchema-instance" xsi:schemaLocation="http://www.topografix.com/GPX/1/1 http://www.topografix.com/GPX/1/1/gpx.xsd" version="1.1" creator="VisuGPX - https://www.visugpx.com">
  <metadata>
    <name>46 - Porte-du-Quercy : boucles au départ du Domaine des Terres Blanches</name>
    <desc><![CDATA[Cet itinéraire fait partie de la collection de EquiLiberté : www.equiliberte.org Circuit NON ACCESSIBLE aux attelages
Ces circuits ont été élaborés par le gîte équestre Domaine des Terres Blanches https://domainedesterresblanches.com/]]></desc>
  </metadata>
  <wpt lat="44.41706" lon="1.15834">
    <ele>172</ele>
    <name><![CDATA[Domaine des Terres Blanches]]></name>
    <type><![CDATA[hotel]]></type>
  </wpt>
  <trk>
    <name><![CDATA[46 - Porte-du-Quercy : Les Terres Blanches : boucle nord-ouest 18 km]]></name>
    <trkseg>
      <trkpt lat="44.41672" lon="1.15852">
        <ele>174</ele>
        <time>2021-01-20T18:32:40Z</time>
      </trkpt>
      <trkpt lat="44.41633" lon="1.1564">
        <ele>181</ele>
        <time>2021-01-20T18:34:45Z</time>
      </trkpt>
      <trkpt lat="44.41585" lon="1.15427">
        <ele>190</ele>
        <time>2021-01-20T18:36:53Z</time>
      </trkpt>
      <trkpt lat="44.4152" lon="1.15288">
        <ele>189</ele>
        <time>2021-01-20T18:38:28Z</time>
      </trkpt>
      <trkpt lat="44.41459" lon="1.15203">
        <ele>182</ele>
        <time>2021-01-20T18:39:37Z</time>
      </trkpt>
      <trkpt lat="44.41425" lon="1.1513">
        <ele>177</ele>
        <time>2021-01-20T18:40:27Z</time>
      </trkpt>
      <trkpt lat="44.41468" lon="1.15002">
        <ele>179</ele>
        <time>2021-01-20T18:41:48Z</time>
      </trkpt>
      <trkpt lat="44.41481" lon="1.14899">
        <ele>180</ele>
        <time>2021-01-20T18:42:47Z</time>
      </trkpt>
      <trkpt lat="44.41451" lon="1.14796">
        <ele>178</ele>
        <time>2021-01-20T18:43:51Z</time>
      </trkpt>
      <trkpt lat="44.41416" lon="1.14656">
        <ele>175</ele>
        <time>2021-01-20T18:45:16Z</time>
      </trkpt>
      <trkpt lat="44.41394" lon="1.14572">
        <ele>171</ele>
        <time>2021-01-20T18:46:07Z</time>
      </trkpt>
      <trkpt lat="44.41334" lon="1.14572">
        <ele>175</ele>
        <time>2021-01-20T18:46:55Z</time>
      </trkpt>
      <trkpt lat="44.41264" lon="1.14511">
        <ele>171</ele>
        <time>2021-01-20T18:48:01Z</time>
      </trkpt>
      <trkpt lat="44.41147" lon="1.14553">
        <ele>170</ele>
        <time>2021-01-20T18:49:38Z</time>
      </trkpt>
      <trkpt lat="44.41108" lon="1.14456">
        <ele>163</ele>
        <time>2021-01-20T18:50:41Z</time>
      </trkpt>
      <trkpt lat="44.41104" lon="1.14353">
        <ele>162</ele>
        <time>2021-01-20T18:51:40Z</time>
      </trkpt>
      <trkpt lat="44.41277" lon="1.14189">
        <ele>160</ele>
        <time>2021-01-20T18:54:28Z</time>
      </trkpt>
      <trkpt lat="44.41494" lon="1.14159">
        <ele>157</ele>
        <time>2021-01-20T18:57:22Z</time>
      </trkpt>
      <trkpt lat="44.41688" lon="1.14075">
        <ele>160</ele>
        <time>2021-01-20T19:00:05Z</time>
      </trkpt>
      <trkpt lat="44.41615" lon="1.13952">
        <ele>166</ele>
        <time>2021-01-20T19:01:36Z</time>
      </trkpt>
      <trkpt lat="44.41533" lon="1.13958">
        <ele>171</ele>
        <time>2021-01-20T19:02:42Z</time>
      </trkpt>
      <trkpt lat="44.41435" lon="1.13879">
        <ele>180</ele>
        <time>2021-01-20T19:04:13Z</time>
      </trkpt>
      <trkpt lat="44.41374" lon="1.13758">
        <ele>189</ele>
        <time>2021-01-20T19:05:37Z</time>
      </trkpt>
      <trkpt lat="44.41271" lon="1.13677">
        <ele>197</ele>
        <time>2021-01-20T19:07:12Z</time>
      </trkpt>
      <trkpt lat="44.41147" lon="1.13594">
        <ele>183</ele>
        <time>2021-01-20T19:09:02Z</time>
      </trkpt>
      <trkpt lat="44.4103" lon="1.13625">
        <ele>187</ele>
        <time>2021-01-20T19:10:37Z</time>
      </trkpt>
      <trkpt lat="44.40939" lon="1.13625">
        <ele>188</ele>
        <time>2021-01-20T19:11:50Z</time>
      </trkpt>
      <trkpt lat="44.41004" lon="1.13491">
        <ele>194</ele>
        <time>2021-01-20T19:13:23Z</time>
      </trkpt>
      <trkpt lat="44.41151" lon="1.13309">
        <ele>214</ele>
        <time>2021-01-20T19:16:00Z</time>
      </trkpt>
      <trkpt lat="44.41277" lon="1.13133">
        <ele>241</ele>
        <time>2021-01-20T19:18:23Z</time>
      </trkpt>
      <trkpt lat="44.41641" lon="1.13">
        <ele>236</ele>
        <time>2021-01-20T19:23:24Z</time>
      </trkpt>
      <trkpt lat="44.41767" lon="1.13151">
        <ele>232</ele>
        <time>2021-01-20T19:25:37Z</time>
      </trkpt>
      <trkpt lat="44.41875" lon="1.13212">
        <ele>241</ele>
        <time>2021-01-20T19:27:10Z</time>
      </trkpt>
      <trkpt lat="44.41923" lon="1.13085">
        <ele>234</ele>
        <time>2021-01-20T19:28:32Z</time>
      </trkpt>
      <trkpt lat="44.41875" lon="1.12909">
        <ele>218</ele>
        <time>2021-01-20T19:30:20Z</time>
      </trkpt>
      <trkpt lat="44.41793" lon="1.12805">
        <ele>197</ele>
        <time>2021-01-20T19:31:48Z</time>
      </trkpt>
      <trkpt lat="44.41771" lon="1.12405">
        <ele>177</ele>
        <time>2021-01-20T19:35:38Z</time>
      </trkpt>
      <trkpt lat="44.41702" lon="1.12016">
        <ele>168</ele>
        <time>2021-01-20T19:39:27Z</time>
      </trkpt>
      <trkpt lat="44.41728" lon="1.11901">
        <ele>165</ele>
        <time>2021-01-20T19:40:36Z</time>
      </trkpt>
      <trkpt lat="44.41607" lon="1.1167">
        <ele>164</ele>
        <time>2021-01-20T19:43:20Z</time>
      </trkpt>
      <trkpt lat="44.41932" lon="1.11385">
        <ele>160</ele>
        <time>2021-01-20T19:48:27Z</time>
      </trkpt>
      <trkpt lat="44.42157" lon="1.11294">
        <ele>168</ele>
        <time>2021-01-20T19:51:34Z</time>
      </trkpt>
      <trkpt lat="44.42461" lon="1.11452">
        <ele>166</ele>
        <time>2021-01-20T19:55:54Z</time>
      </trkpt>
      <trkpt lat="44.42565" lon="1.10973">
        <ele>216</ele>
        <time>2021-01-20T20:00:40Z</time>
      </trkpt>
      <trkpt lat="44.42638" lon="1.11051">
        <ele>235</ele>
        <time>2021-01-20T20:01:54Z</time>
      </trkpt>
      <trkpt lat="44.42617" lon="1.11246">
        <ele>215</ele>
        <time>2021-01-20T20:03:47Z</time>
      </trkpt>
      <trkpt lat="44.4269" lon="1.1147">
        <ele>221</ele>
        <time>2021-01-20T20:06:07Z</time>
      </trkpt>
      <trkpt lat="44.42708" lon="1.11039">
        <ele>247</ele>
        <time>2021-01-20T20:10:14Z</time>
      </trkpt>
      <trkpt lat="44.42734" lon="1.10548">
        <ele>263</ele>
        <time>2021-01-20T20:14:56Z</time>
      </trkpt>
      <trkpt lat="44.42929" lon="1.10414">
        <ele>252</ele>
        <time>2021-01-20T20:17:50Z</time>
      </trkpt>
      <trkpt lat="44.43171" lon="1.10396">
        <ele>252</ele>
        <time>2021-01-20T20:21:04Z</time>
      </trkpt>
      <trkpt lat="44.43277" lon="1.10536">
        <ele>253</ele>
        <time>2021-01-20T20:23:00Z</time>
      </trkpt>
      <trkpt lat="44.4335" lon="1.10536">
        <ele>255</ele>
        <time>2021-01-20T20:23:59Z</time>
      </trkpt>
      <trkpt lat="44.43376" lon="1.10615">
        <ele>251</ele>
        <time>2021-01-20T20:24:48Z</time>
      </trkpt>
      <trkpt lat="44.43389" lon="1.10663">
        <ele>248</ele>
        <time>2021-01-20T20:25:18Z</time>
      </trkpt>
      <trkpt lat="44.43364" lon="1.10708">
        <ele>237</ele>
        <time>2021-01-20T20:25:50Z</time>
      </trkpt>
      <trkpt lat="44.43361" lon="1.10712">
        <ele>236</ele>
        <time>2021-01-20T20:25:54Z</time>
      </trkpt>
      <trkpt lat="44.43448" lon="1.10839">
        <ele>224</ele>
        <time>2021-01-20T20:27:34Z</time>
      </trkpt>
      <trkpt lat="44.43615" lon="1.10723">
        <ele>254</ele>
        <time>2021-01-20T20:30:04Z</time>
      </trkpt>
      <trkpt lat="44.43677" lon="1.10731">
        <ele>261</ele>
        <time>2021-01-20T20:30:53Z</time>
      </trkpt>
      <trkpt lat="44.43861" lon="1.10836">
        <ele>263</ele>
        <time>2021-01-20T20:33:33Z</time>
      </trkpt>
      <trkpt lat="44.44038" lon="1.10845">
        <ele>262</ele>
        <time>2021-01-20T20:35:54Z</time>
      </trkpt>
      <trkpt lat="44.44237" lon="1.10888">
        <ele>259</ele>
        <time>2021-01-20T20:38:36Z</time>
      </trkpt>
      <trkpt lat="44.44289" lon="1.10979">
        <ele>257</ele>
        <time>2021-01-20T20:39:42Z</time>
      </trkpt>
      <trkpt lat="44.4434" lon="1.11034">
        <ele>257</ele>
        <time>2021-01-20T20:40:34Z</time>
      </trkpt>
      <trkpt lat="44.44439" lon="1.11046">
        <ele>254</ele>
        <time>2021-01-20T20:41:53Z</time>
      </trkpt>
      <trkpt lat="44.44441" lon="1.11187">
        <ele>254</ele>
        <time>2021-01-20T20:43:14Z</time>
      </trkpt>
      <trkpt lat="44.44429" lon="1.11316">
        <ele>255</ele>
        <time>2021-01-20T20:44:28Z</time>
      </trkpt>
      <trkpt lat="44.44493" lon="1.11462">
        <ele>249</ele>
        <time>2021-01-20T20:46:06Z</time>
      </trkpt>
      <trkpt lat="44.44499" lon="1.11479">
        <ele>248</ele>
        <time>2021-01-20T20:46:17Z</time>
      </trkpt>
      <trkpt lat="44.44441" lon="1.11595">
        <ele>249</ele>
        <time>2021-01-20T20:47:38Z</time>
      </trkpt>
      <trkpt lat="44.44355" lon="1.11698">
        <ele>253</ele>
        <time>2021-01-20T20:49:09Z</time>
      </trkpt>
      <trkpt lat="44.44236" lon="1.11719">
        <ele>256</ele>
        <time>2021-01-20T20:50:45Z</time>
      </trkpt>
      <trkpt lat="44.44138" lon="1.11797">
        <ele>255</ele>
        <time>2021-01-20T20:52:15Z</time>
      </trkpt>
      <trkpt lat="44.44089" lon="1.11894">
        <ele>249</ele>
        <time>2021-01-20T20:53:23Z</time>
      </trkpt>
      <trkpt lat="44.44087" lon="1.11998">
        <ele>245</ele>
        <time>2021-01-20T20:54:22Z</time>
      </trkpt>
      <trkpt lat="44.44043" lon="1.12071">
        <ele>241</ele>
        <time>2021-01-20T20:55:17Z</time>
      </trkpt>
      <trkpt lat="44.44007" lon="1.12121">
        <ele>239</ele>
        <time>2021-01-20T20:55:58Z</time>
      </trkpt>
      <trkpt lat="44.43971" lon="1.12168">
        <ele>235</ele>
        <time>2021-01-20T20:56:37Z</time>
      </trkpt>
      <trkpt lat="44.43945" lon="1.1224">
        <ele>232</ele>
        <time>2021-01-20T20:57:23Z</time>
      </trkpt>
      <trkpt lat="44.44038" lon="1.12218">
        <ele>232</ele>
        <time>2021-01-20T20:58:39Z</time>
      </trkpt>
      <trkpt lat="44.44033" lon="1.12269">
        <ele>227</ele>
        <time>2021-01-20T20:59:08Z</time>
      </trkpt>
      <trkpt lat="44.44004" lon="1.12301">
        <ele>224</ele>
        <time>2021-01-20T20:59:38Z</time>
      </trkpt>
      <trkpt lat="44.43994" lon="1.12359">
        <ele>219</ele>
        <time>2021-01-20T21:00:12Z</time>
      </trkpt>
      <trkpt lat="44.44004" lon="1.12453">
        <ele>212</ele>
        <time>2021-01-20T21:01:06Z</time>
      </trkpt>
      <trkpt lat="44.44012" lon="1.12514">
        <ele>210</ele>
        <time>2021-01-20T21:01:41Z</time>
      </trkpt>
      <trkpt lat="44.44025" lon="1.12644">
        <ele>202</ele>
        <time>2021-01-20T21:02:57Z</time>
      </trkpt>
      <trkpt lat="44.44046" lon="1.12796">
        <ele>201</ele>
        <time>2021-01-20T21:04:25Z</time>
      </trkpt>
      <trkpt lat="44.44056" lon="1.12922">
        <ele>196</ele>
        <time>2021-01-20T21:05:37Z</time>
      </trkpt>
      <trkpt lat="44.44082" lon="1.13048">
        <ele>188</ele>
        <time>2021-01-20T21:06:52Z</time>
      </trkpt>
      <trkpt lat="44.44105" lon="1.13189">
        <ele>175</ele>
        <time>2021-01-20T21:08:15Z</time>
      </trkpt>
      <trkpt lat="44.44146" lon="1.13124">
        <ele>172</ele>
        <time>2021-01-20T21:09:05Z</time>
      </trkpt>
      <trkpt lat="44.44159" lon="1.13196">
        <ele>167</ele>
        <time>2021-01-20T21:09:47Z</time>
      </trkpt>
      <trkpt lat="44.44195" lon="1.13135">
        <ele>167</ele>
        <time>2021-01-20T21:10:32Z</time>
      </trkpt>
      <trkpt lat="44.44198" lon="1.13305">
        <ele>161</ele>
        <time>2021-01-20T21:12:10Z</time>
      </trkpt>
      <trkpt lat="44.44203" lon="1.13402">
        <ele>157</ele>
        <time>2021-01-20T21:13:05Z</time>
      </trkpt>
      <trkpt lat="44.44182" lon="1.13482">
        <ele>155</ele>
        <time>2021-01-20T21:13:54Z</time>
      </trkpt>
      <trkpt lat="44.44143" lon="1.13583">
        <ele>146</ele>
        <time>2021-01-20T21:15:00Z</time>
      </trkpt>
      <trkpt lat="44.4412" lon="1.13662">
        <ele>138</ele>
        <time>2021-01-20T21:15:48Z</time>
      </trkpt>
      <trkpt lat="44.44092" lon="1.13705">
        <ele>133</ele>
        <time>2021-01-20T21:16:22Z</time>
      </trkpt>
      <trkpt lat="44.44087" lon="1.13716">
        <ele>132</ele>
        <time>2021-01-20T21:16:29Z</time>
      </trkpt>
      <trkpt lat="44.44038" lon="1.13637">
        <ele>135</ele>
        <time>2021-01-20T21:17:29Z</time>
      </trkpt>
      <trkpt lat="44.43989" lon="1.13579">
        <ele>138</ele>
        <time>2021-01-20T21:18:20Z</time>
      </trkpt>
      <trkpt lat="44.43961" lon="1.13536">
        <ele>139</ele>
        <time>2021-01-20T21:18:54Z</time>
      </trkpt>
      <trkpt lat="44.43883" lon="1.13445">
        <ele>135</ele>
        <time>2021-01-20T21:20:15Z</time>
      </trkpt>
      <trkpt lat="44.43847" lon="1.13391">
        <ele>134</ele>
        <time>2021-01-20T21:20:57Z</time>
      </trkpt>
      <trkpt lat="44.43788" lon="1.13362">
        <ele>135</ele>
        <time>2021-01-20T21:21:47Z</time>
      </trkpt>
      <trkpt lat="44.43713" lon="1.13359">
        <ele>135</ele>
        <time>2021-01-20T21:22:47Z</time>
      </trkpt>
      <trkpt lat="44.43636" lon="1.13344">
        <ele>134</ele>
        <time>2021-01-20T21:23:49Z</time>
      </trkpt>
      <trkpt lat="44.43577" lon="1.13312">
        <ele>135</ele>
        <time>2021-01-20T21:24:40Z</time>
      </trkpt>
      <trkpt lat="44.43533" lon="1.13323">
        <ele>133</ele>
        <time>2021-01-20T21:25:16Z</time>
      </trkpt>
      <trkpt lat="44.43507" lon="1.13377">
        <ele>131</ele>
        <time>2021-01-20T21:25:53Z</time>
      </trkpt>
      <trkpt lat="44.43494" lon="1.13445">
        <ele>130</ele>
        <time>2021-01-20T21:26:33Z</time>
      </trkpt>
      <trkpt lat="44.4345" lon="1.13456">
        <ele>133</ele>
        <time>2021-01-20T21:27:09Z</time>
      </trkpt>
      <trkpt lat="44.43397" lon="1.13509">
        <ele>134</ele>
        <time>2021-01-20T21:28:01Z</time>
      </trkpt>
      <trkpt lat="44.43288" lon="1.13534">
        <ele>139</ele>
        <time>2021-01-20T21:29:30Z</time>
      </trkpt>
      <trkpt lat="44.43202" lon="1.13576">
        <ele>142</ele>
        <time>2021-01-20T21:30:43Z</time>
      </trkpt>
      <trkpt lat="44.43141" lon="1.13679">
        <ele>137</ele>
        <time>2021-01-20T21:31:59Z</time>
      </trkpt>
      <trkpt lat="44.43093" lon="1.13728">
        <ele>138</ele>
        <time>2021-01-20T21:32:47Z</time>
      </trkpt>
      <trkpt lat="44.42968" lon="1.13813">
        <ele>143</ele>
        <time>2021-01-20T21:34:38Z</time>
      </trkpt>
      <trkpt lat="44.4292" lon="1.13886">
        <ele>140</ele>
        <time>2021-01-20T21:35:35Z</time>
      </trkpt>
      <trkpt lat="44.42855" lon="1.13965">
        <ele>141</ele>
        <time>2021-01-20T21:36:44Z</time>
      </trkpt>
      <trkpt lat="44.42768" lon="1.14068">
        <ele>142</ele>
        <time>2021-01-20T21:38:15Z</time>
      </trkpt>
      <trkpt lat="44.42569" lon="1.14116">
        <ele>149</ele>
        <time>2021-01-20T21:40:57Z</time>
      </trkpt>
      <trkpt lat="44.424" lon="1.14135">
        <ele>152</ele>
        <time>2021-01-20T21:43:12Z</time>
      </trkpt>
      <trkpt lat="44.42253" lon="1.14195">
        <ele>151</ele>
        <time>2021-01-20T21:45:15Z</time>
      </trkpt>
      <trkpt lat="44.4224" lon="1.14311">
        <ele>145</ele>
        <time>2021-01-20T21:46:22Z</time>
      </trkpt>
      <trkpt lat="44.4204" lon="1.14377">
        <ele>149</ele>
        <time>2021-01-20T21:49:07Z</time>
      </trkpt>
      <trkpt lat="44.41945" lon="1.14396">
        <ele>150</ele>
        <time>2021-01-20T21:50:23Z</time>
      </trkpt>
      <trkpt lat="44.41923" lon="1.1448">
        <ele>151</ele>
        <time>2021-01-20T21:51:15Z</time>
      </trkpt>
      <trkpt lat="44.41953" lon="1.14693">
        <ele>152</ele>
        <time>2021-01-20T21:53:19Z</time>
      </trkpt>
      <trkpt lat="44.41971" lon="1.14808">
        <ele>154</ele>
        <time>2021-01-20T21:54:26Z</time>
      </trkpt>
      <trkpt lat="44.41945" lon="1.14893">
        <ele>154</ele>
        <time>2021-01-20T21:55:19Z</time>
      </trkpt>
      <trkpt lat="44.41923" lon="1.14984">
        <ele>155</ele>
        <time>2021-01-20T21:56:14Z</time>
      </trkpt>
      <trkpt lat="44.41867" lon="1.15063">
        <ele>158</ele>
        <time>2021-01-20T21:57:18Z</time>
      </trkpt>
      <trkpt lat="44.41815" lon="1.15154">
        <ele>162</ele>
        <time>2021-01-20T21:58:24Z</time>
      </trkpt>
      <trkpt lat="44.41754" lon="1.15251">
        <ele>168</ele>
        <time>2021-01-20T21:59:38Z</time>
      </trkpt>
      <trkpt lat="44.41689" lon="1.15324">
        <ele>176</ele>
        <time>2021-01-20T22:00:45Z</time>
      </trkpt>
      <trkpt lat="44.41723" lon="1.15312">
        <ele>172</ele>
        <time>2021-01-20T22:01:13Z</time>
      </trkpt>
      <trkpt lat="44.41656" lon="1.1537">
        <ele>179</ele>
        <time>2021-01-20T22:02:16Z</time>
      </trkpt>
      <trkpt lat="44.41613" lon="1.15407">
        <ele>185</ele>
        <time>2021-01-20T22:02:56Z</time>
      </trkpt>
      <trkpt lat="44.41617" lon="1.15583">
        <ele>185</ele>
        <time>2021-01-20T22:04:37Z</time>
      </trkpt>
      <trkpt lat="44.41645" lon="1.15701">
        <ele>178</ele>
        <time>2021-01-20T22:05:48Z</time>
      </trkpt>
      <trkpt lat="44.41671" lon="1.1584">
        <ele>173</ele>
        <time>2021-01-20T22:07:10Z</time>
      </trkpt>
      <trkpt lat="44.41671" lon="1.1584">
        <ele>173</ele>
        <time>2021-01-20T22:07:10Z</time>
      </trkpt>
    </trkseg>
  </trk>
</gpx>